Time;durP1;ratioP1;P1;durP2;ratioP2;P2;SDS_P1;SDS_P2;PMS_P1;PMS_P2;Temp;Humidity;BMP_temperature;BMP_pressure;BME280_temperature;BME280_humidity;BME280_pressure;Samples;Min_cycle;Max_cycle;Signal;HPM_P1;HPM_P2
2022/11/26 00:00:56;;;;;;;0.60;0.60;;;;;;;7.24;50.38;95611.44;4953421;28;20228;-61
2022/11/26 00:03:23;;;;;;;2.72;2.17;;;;;;;7.19;50.59;95614.69;4944978;28;20751;-61
2022/11/26 00:05:53;;;;;;;1.42;1.35;;;;;;;7.25;50.62;95610.44;4934711;29;20204;-60
2022/11/26 00:08:34;;;;;;;1.95;1.55;;;;;;;6.56;51.86;95619.31;4934500;29;20218;-61
2022/11/26 00:11:01;;;;;;;0.30;0.30;;;;;;;6.77;52.71;95615.53;4948571;29;20246;-59
2022/11/26 00:13:30;;;;;;;0.65;0.65;;;;;;;6.75;52.11;95613.13;4946244;28;20707;-60
2022/11/26 00:15:57;;;;;;;0.77;0.77;;;;;;;6.70;51.95;95620.78;4947699;29;20727;-60
2022/11/26 00:18:25;;;;;;;1.77;1.23;;;;;;;6.83;51.65;95610.25;4940025;28;20636;-60
2022/11/26 00:20:59;;;;;;;2.25;1.48;;;;;;;6.75;52.27;95607.91;4941577;28;20256;-60
2022/11/26 00:23:27;;;;;;;0.00;0.00;;;;;;;6.90;51.76;95595.34;4939033;29;20191;-60
2022/11/26 00:25:58;;;;;;;11.13;4.32;;;;;;;7.07;51.68;95604.22;4941930;28;20268;-59
2022/11/26 00:28:29;;;;;;;1.77;1.10;;;;;;;6.93;51.07;95596.75;4947989;28;20629;-61
2022/11/26 00:30:59;;;;;;;0.25;0.25;;;;;;;6.86;52.08;95612.41;4934593;28;20627;-62
2022/11/26 00:33:27;;;;;;;2.38;1.50;;;;;;;6.73;52.20;95609.16;4951407;29;20306;-61
2022/11/26 00:36:02;;;;;;;0.00;0.00;;;;;;;6.85;51.67;95610.84;4953383;28;20198;-61
2022/11/26 00:38:30;;;;;;;0.25;0.25;;;;;;;6.47;52.77;95607.56;4953176;28;20206;-61
2022/11/26 00:40:57;;;;;;;0.50;0.50;;;;;;;6.40;53.04;95614.63;4953004;28;20195;-60
2022/11/26 00:43:24;;;;;;;0.10;0.10;;;;;;;6.41;52.90;95615.41;4939805;29;20259;-60
2022/11/26 00:45:51;;;;;;;1.77;1.02;;;;;;;6.57;52.44;95625.31;4945358;29;20198;-60
2022/11/26 00:48:18;;;;;;;1.85;0.93;;;;;;;6.54;52.59;95623.91;4947458;28;20553;-61
2022/11/26 00:50:49;;;;;;;0.60;0.60;;;;;;;6.80;52.36;95615.91;4935132;29;20284;-61
2022/11/26 00:53:21;;;;;;;1.27;1.17;;;;;;;6.63;52.69;95624.44;4942705;29;20243;-60
2022/11/26 00:55:49;;;;;;;0.20;0.20;;;;;;;6.41;52.92;95629.22;4952209;28;20200;-60
2022/11/26 00:58:28;;;;;;;4.43;2.25;;;;;;;6.25;53.14;95634.94;4944954;28;20228;-60
2022/11/26 01:00:58;;;;;;;0.95;0.88;;;;;;;6.40;53.48;95632.84;4946939;29;20231;-61
2022/11/26 01:03:25;;;;;;;0.57;0.57;;;;;;;6.50;52.59;95630.56;4941991;29;20215;-61
2022/11/26 01:05:53;;;;;;;0.25;0.25;;;;;;;6.47;53.12;95631.00;4938086;28;20247;-60
2022/11/26 01:08:30;;;;;;;0.55;0.55;;;;;;;6.39;53.12;95626.03;4933102;29;20205;-60
2022/11/26 01:11:00;;;;;;;0.73;0.73;;;;;;;6.59;53.15;95616.25;4934224;29;20200;-61
2022/11/26 01:13:27;;;;;;;0.82;0.80;;;;;;;6.59;53.18;95618.88;4945686;28;20297;-60
2022/11/26 01:15:55;;;;;;;3.97;2.10;;;;;;;6.51;52.67;95633.97;4946239;29;20196;-60
2022/11/26 01:18:22;;;;;;;0.45;0.30;;;;;;;6.48;52.88;95642.97;4946586;28;20284;-60
2022/11/26 01:20:49;;;;;;;0.03;0.03;;;;;;;6.51;52.92;95621.75;4944568;29;20674;-59
2022/11/26 01:23:18;;;;;;;0.75;0.75;;;;;;;6.55;52.60;95650.75;4948458;29;20201;-60
2022/11/26 01:25:46;;;;;;;0.20;0.20;;;;;;;6.54;52.77;95636.94;4943265;29;20204;-60
2022/11/26 01:28:17;;;;;;;0.20;0.20;;;;;;;6.57;52.23;95652.13;4938234;28;20295;-61
2022/11/26 01:30:45;;;;;;;0.73;0.73;;;;;;;6.24;53.14;95648.19;4942794;29;20201;-59
2022/11/26 01:33:11;;;;;;;0.25;0.25;;;;;;;6.48;53.05;95652.63;4947735;29;20238;-60
2022/11/26 01:35:38;;;;;;;0.80;0.80;;;;;;;6.58;52.13;95648.53;4951891;28;20192;-60
2022/11/26 01:38:05;;;;;;;1.70;1.55;;;;;;;6.36;52.81;95655.09;4938566;28;20251;-60
2022/11/26 01:41:01;;;;;;;0.00;0.00;;;;;;;6.32;53.00;95659.13;4952238;28;20198;-60
2022/11/26 01:43:48;;;;;;;0.10;0.10;;;;;;;6.57;52.17;95656.56;4938366;28;20201;-60
2022/11/26 01:46:21;;;;;;;0.50;0.50;;;;;;;6.39;52.43;95653.84;4951761;28;20271;-60
2022/11/26 01:48:49;;;;;;;0.57;0.25;;;;;;;6.40;52.48;95650.25;4947723;28;20207;-60
2022/11/26 01:51:25;;;;;;;1.45;1.35;;;;;;;6.51;52.85;95653.00;4932775;29;20204;-59
2022/11/26 01:53:59;;;;;;;0.20;0.20;;;;;;;6.55;52.34;95658.56;4932335;29;20236;-62
2022/11/26 01:56:35;;;;;;;0.73;0.70;;;;;;;6.47;52.41;95649.22;4938295;28;20208;-61
2022/11/26 01:59:09;;;;;;;0.35;0.35;;;;;;;6.55;52.21;95654.13;4932325;29;20555;-61
2022/11/26 02:01:35;;;;;;;2.22;2.03;;;;;;;6.61;52.64;95652.50;4933248;29;20200;-60
2022/11/26 02:04:22;;;;;;;0.20;0.20;;;;;;;6.52;52.41;95649.38;4951697;28;20192;-61
2022/11/26 02:06:50;;;;;;;1.65;0.70;;;;;;;6.30;53.08;95653.31;4950154;28;20318;-59
2022/11/26 02:09:18;;;;;;;2.20;1.95;;;;;;;6.06;53.25;95654.88;4939761;29;20235;-60
2022/11/26 02:11:45;;;;;;;0.20;0.20;;;;;;;6.02;53.47;95652.91;4938503;28;20295;-61
2022/11/26 02:14:22;;;;;;;1.50;1.40;;;;;;;6.07;53.66;95640.88;4932015;28;20791;-60
2022/11/26 02:16:49;;;;;;;1.17;1.17;;;;;;;5.90;53.42;95654.56;4945212;28;20210;-60
2022/11/26 02:19:31;;;;;;;0.40;0.40;;;;;;;5.99;54.31;95653.31;4946142;28;20211;-60
2022/11/26 02:22:14;;;;;;;1.45;0.90;;;;;;;5.91;53.31;95656.16;4945968;29;20192;-60
2022/11/26 02:24:48;;;;;;;0.40;0.40;;;;;;;5.35;55.81;95649.94;4940600;29;20199;-61
2022/11/26 02:27:36;;;;;;;0.75;0.70;;;;;;;6.15;53.89;95651.00;4954605;28;20668;-59
2022/11/26 02:30:06;;;;;;;1.55;1.45;;;;;;;6.37;53.22;95656.69;4955477;28;20296;-60
2022/11/26 02:32:57;;;;;;;1.30;1.08;;;;;;;6.44;52.93;95652.22;4941736;28;20640;-61
2022/11/26 02:35:33;;;;;;;0.55;0.55;;;;;;;6.32;52.89;95643.50;4943074;28;20354;-61
2022/11/26 02:38:05;;;;;;;0.00;0.00;;;;;;;6.46;52.07;95649.44;4941730;29;20222;-60
2022/11/26 02:40:31;;;;;;;1.83;0.98;;;;;;;6.09;52.58;95638.06;4942573;28;20200;-61
2022/11/26 02:42:58;;;;;;;0.52;0.52;;;;;;;5.99;53.02;95640.28;4953905;29;20219;-60
2022/11/26 02:45:29;;;;;;;0.00;0.00;;;;;;;5.94;53.48;95645.34;4944448;28;20203;-60
2022/11/26 02:48:00;;;;;;;0.90;0.90;;;;;;;5.96;53.49;95653.72;4934338;29;20243;-60
2022/11/26 02:50:35;;;;;;;0.60;0.57;;;;;;;6.29;52.67;95659.56;4935916;29;20204;-61
2022/11/26 02:53:04;;;;;;;0.00;0.00;;;;;;;6.21;52.69;95665.00;4942620;28;20214;-59
2022/11/26 02:55:35;;;;;;;0.00;0.00;;;;;;;6.06;52.46;95647.06;4954659;28;20711;-60
2022/11/26 02:58:02;;;;;;;3.85;1.38;;;;;;;5.93;52.79;95656.75;4935775;29;20631;-61
2022/11/26 03:00:33;;;;;;;3.28;1.40;;;;;;;5.83;53.15;95662.41;4935666;29;20252;-59
2022/11/26 03:03:15;;;;;;;0.00;0.00;;;;;;;5.82;53.01;95665.97;4953995;29;20207;-62
2022/11/26 03:05:42;;;;;;;0.80;0.73;;;;;;;5.69;52.96;95670.44;4954934;28;20196;-60
2022/11/26 03:08:09;;;;;;;0.30;0.30;;;;;;;5.77;53.29;95677.97;4949658;28;20294;-60
2022/11/26 03:10:36;;;;;;;2.17;1.98;;;;;;;5.81;52.85;95672.19;4946865;29;20203;-61
2022/11/26 03:13:03;;;;;;;0.45;0.45;;;;;;;5.78;52.93;95671.78;4937089;28;20200;-61
2022/11/26 03:15:30;;;;;;;0.30;0.30;;;;;;;5.33;53.99;95677.94;4945079;29;20227;-62
2022/11/26 03:17:57;;;;;;;1.27;1.20;;;;;;;5.40;54.06;95676.13;4940780;28;20561;-63
2022/11/26 03:20:24;;;;;;;0.63;0.63;;;;;;;5.58;53.92;95681.47;4954650;28;20231;-59
2022/11/26 03:22:51;;;;;;;0.00;0.00;;;;;;;5.64;53.88;95685.84;4954402;28;20255;-59
2022/11/26 03:25:18;;;;;;;0.00;0.00;;;;;;;5.86;53.26;95694.97;4948095;28;20670;-60
2022/11/26 03:27:45;;;;;;;0.55;0.55;;;;;;;5.94;52.57;95694.75;4947781;29;20206;-60
2022/11/26 03:30:12;;;;;;;0.20;0.20;;;;;;;5.85;52.51;95699.41;4954150;28;20192;-60
2022/11/26 03:32:39;;;;;;;1.65;1.55;;;;;;;5.98;52.58;95708.94;4954488;28;20203;-59
2022/11/26 03:35:06;;;;;;;0.55;0.55;;;;;;;5.99;52.21;95715.75;4951242;28;20659;-60
2022/11/26 03:37:33;;;;;;;0.90;0.82;;;;;;;5.98;52.65;95719.34;4933936;29;20632;-61
2022/11/26 03:40:00;;;;;;;1.70;0.85;;;;;;;5.57;53.19;95711.84;4950403;28;20235;-60
2022/11/26 03:42:27;;;;;;;1.75;0.63;;;;;;;5.52;53.21;95713.47;4954460;28;20243;-60
2022/11/26 03:44:54;;;;;;;2.10;0.43;;;;;;;5.77;53.30;95717.00;4940212;28;20656;-60
2022/11/26 03:47:21;;;;;;;0.15;0.15;;;;;;;5.34;53.68;95718.50;4947850;28;20818;-61
2022/11/26 03:49:48;;;;;;;1.40;1.30;;;;;;;5.15;54.71;95713.13;4934885;29;20694;-61
2022/11/26 03:52:15;;;;;;;1.00;0.90;;;;;;;5.19;54.21;95731.72;4935225;29;20209;-59
2022/11/26 03:54:41;;;;;;;0.52;0.45;;;;;;;5.32;54.49;95733.50;4953685;28;20274;-61
2022/11/26 03:57:08;;;;;;;1.88;0.95;;;;;;;5.61;53.83;95727.84;4941516;29;20212;-60
2022/11/26 03:59:35;;;;;;;0.40;0.40;;;;;;;5.74;52.89;95733.00;4948009;29;20199;-60
2022/11/26 04:02:03;;;;;;;0.00;0.00;;;;;;;5.65;53.61;95742.03;4934817;29;20204;-60
2022/11/26 04:04:30;;;;;;;2.00;1.83;;;;;;;5.75;53.38;95734.59;4951148;29;20226;-60
2022/11/26 04:06:57;;;;;;;0.88;0.88;;;;;;;5.82;52.96;95730.97;4944467;28;20212;-60
2022/11/26 04:09:24;;;;;;;0.10;0.10;;;;;;;5.94;52.52;95738.97;4933948;28;20217;-60
2022/11/26 04:11:50;;;;;;;1.02;0.77;;;;;;;5.89;53.12;95741.41;4942382;29;20307;-60
2022/11/26 04:14:17;;;;;;;0.22;0.22;;;;;;;5.86;52.93;95742.59;4939470;29;20381;-61
2022/11/26 04:16:44;;;;;;;0.47;0.47;;;;;;;5.80;52.84;95748.59;4953865;28;20299;-60
2022/11/26 04:19:11;;;;;;;0.77;0.73;;;;;;;5.49;53.22;95751.06;4941203;28;20208;-60
2022/11/26 04:21:38;;;;;;;1.15;0.32;;;;;;;4.50;55.55;95759.84;4933899;29;20232;-60
2022/11/26 04:24:06;;;;;;;0.68;0.68;;;;;;;4.39;56.54;95763.03;4934249;29;20268;-60
2022/11/26 04:26:33;;;;;;;1.00;1.00;;;;;;;4.96;55.86;95770.31;4947445;29;20205;-60
2022/11/26 04:28:59;;;;;;;0.00;0.00;;;;;;;5.00;55.31;95767.09;4942886;28;20231;-61
2022/11/26 04:31:26;;;;;;;1.75;0.75;;;;;;;5.29;54.51;95770.28;4939465;28;20263;-60
2022/11/26 04:33:53;;;;;;;0.65;0.65;;;;;;;5.27;54.30;95764.50;4945790;29;20727;-61
2022/11/26 04:36:20;;;;;;;0.43;0.40;;;;;;;5.57;54.01;95768.25;4934156;28;20200;-61
2022/11/26 04:38:47;;;;;;;0.20;0.20;;;;;;;5.23;54.09;95771.91;4947451;29;20200;-61
2022/11/26 04:41:13;;;;;;;0.00;0.00;;;;;;;5.51;53.47;95769.06;4934256;29;20227;-61
2022/11/26 04:43:41;;;;;;;1.85;1.10;;;;;;;4.42;55.99;95792.94;4947164;29;20247;-60
2022/11/26 04:46:07;;;;;;;0.20;0.20;;;;;;;5.02;55.11;95791.06;4943633;29;20339;-61
2022/11/26 04:48:34;;;;;;;1.23;0.75;;;;;;;5.25;54.55;95795.06;4952151;28;20200;-60
2022/11/26 04:51:01;;;;;;;0.08;0.08;;;;;;;4.74;56.32;95798.25;4944655;28;20208;-60
2022/11/26 04:53:28;;;;;;;0.38;0.38;;;;;;;5.17;54.84;95793.47;4933150;29;20307;-65
2022/11/26 04:55:55;;;;;;;0.10;0.10;;;;;;;5.21;55.04;95793.88;4936160;29;20228;-61
2022/11/26 04:58:21;;;;;;;0.80;0.65;;;;;;;5.04;55.61;95798.66;4943986;28;20720;-61
2022/11/26 05:00:49;;;;;;;0.00;0.00;;;;;;;4.74;56.06;95806.03;4946653;28;20211;-61
2022/11/26 05:03:18;;;;;;;0.40;0.40;;;;;;;5.13;55.20;95808.66;4940856;29;20203;-60
2022/11/26 05:05:45;;;;;;;2.28;2.08;;;;;;;4.88;55.84;95805.06;4938812;28;20207;-60
2022/11/26 05:08:13;;;;;;;1.00;0.98;;;;;;;4.71;56.70;95809.00;4943509;29;20191;-59
2022/11/26 05:10:40;;;;;;;0.08;0.08;;;;;;;4.93;55.52;95807.84;4938557;28;20201;-60
2022/11/26 05:13:07;;;;;;;0.30;0.30;;;;;;;5.02;55.01;95814.44;4952593;28;20207;-59
2022/11/26 05:15:33;;;;;;;2.00;1.85;;;;;;;5.07;54.41;95803.47;4938614;28;20275;-59
2022/11/26 05:18:00;;;;;;;1.00;1.00;;;;;;;5.21;54.68;95820.66;4945535;28;20204;-60
2022/11/26 05:20:27;;;;;;;0.13;0.13;;;;;;;5.25;54.22;95821.06;4933322;29;20572;-59
2022/11/26 05:22:54;;;;;;;0.30;0.30;;;;;;;5.24;54.42;95815.06;4944571;28;20204;-61
2022/11/26 05:25:21;;;;;;;0.65;0.65;;;;;;;4.75;56.29;95823.19;4932431;29;20775;-60
2022/11/26 05:27:47;;;;;;;0.75;0.75;;;;;;;4.30;57.88;95826.47;4944972;28;20196;-60
2022/11/26 05:30:14;;;;;;;1.45;1.10;;;;;;;4.54;58.22;95823.34;4945500;28;20742;-60
2022/11/26 05:32:41;;;;;;;0.52;0.52;;;;;;;4.69;57.04;95828.38;4943841;28;20206;-60
2022/11/26 05:35:08;;;;;;;1.85;1.10;;;;;;;4.79;56.54;95826.19;4950975;28;20227;-59
2022/11/26 05:37:35;;;;;;;0.10;0.10;;;;;;;5.07;55.57;95824.25;4952000;28;20271;-60
2022/11/26 05:40:03;;;;;;;1.75;1.25;;;;;;;4.92;55.76;95827.03;4951631;28;20198;-60
2022/11/26 05:42:30;;;;;;;1.45;1.35;;;;;;;5.05;55.36;95831.44;4951857;28;20204;-60
2022/11/26 05:44:57;;;;;;;0.05;0.05;;;;;;;5.30;54.18;95836.84;4949801;28;20215;-60
2022/11/26 05:47:24;;;;;;;0.32;0.32;;;;;;;5.29;54.58;95843.88;4941080;28;20319;-60
2022/11/26 05:49:51;;;;;;;0.43;0.43;;;;;;;5.32;54.35;95833.06;4937845;28;20295;-61
2022/11/26 05:52:17;;;;;;;0.28;0.28;;;;;;;5.25;54.68;95837.47;4932690;29;20670;-60
2022/11/26 05:54:44;;;;;;;3.92;0.85;;;;;;;5.32;54.56;95842.66;4951405;28;20243;-59
2022/11/26 05:57:11;;;;;;;0.00;0.00;;;;;;;5.38;55.25;95845.25;4939110;28;20204;-61
2022/11/26 05:59:38;;;;;;;0.43;0.43;;;;;;;5.41;54.61;95846.63;4951168;28;20640;-60
2022/11/26 06:02:05;;;;;;;0.43;0.43;;;;;;;5.38;54.47;95841.84;4940352;28;20567;-60
2022/11/26 06:04:32;;;;;;;1.42;1.33;;;;;;;5.47;54.64;95851.06;4945951;28;20208;-60
2022/11/26 06:06:59;;;;;;;0.47;0.32;;;;;;;5.32;55.55;95851.25;4942548;28;20607;-60
2022/11/26 06:09:26;;;;;;;0.10;0.10;;;;;;;5.44;55.16;95851.47;4949363;29;20198;-60
2022/11/26 06:11:52;;;;;;;8.15;1.25;;;;;;;5.27;55.71;95855.44;4940738;28;20231;-59
2022/11/26 06:14:19;;;;;;;1.20;0.85;;;;;;;5.41;55.55;95857.03;4950962;28;20746;-61
2022/11/26 06:16:46;;;;;;;5.47;1.65;;;;;;;5.51;55.74;95865.25;4939120;29;20196;-61
2022/11/26 06:19:13;;;;;;;5.47;3.50;;;;;;;5.62;56.46;95864.66;4939498;28;20279;-61
2022/11/26 06:21:40;;;;;;;1.15;1.05;;;;;;;5.62;55.50;95844.63;4950795;29;20290;-61
2022/11/26 06:24:07;;;;;;;1.50;1.40;;;;;;;5.72;55.64;95863.25;4951875;28;20283;-60
2022/11/26 06:26:33;;;;;;;1.30;0.55;;;;;;;5.94;55.19;95853.44;4948827;28;20204;-60
2022/11/26 06:29:00;;;;;;;0.80;0.80;;;;;;;6.01;55.17;95855.03;4941769;28;20282;-60
2022/11/26 06:31:27;;;;;;;0.17;0.17;;;;;;;6.00;55.24;95853.41;4936329;28;20712;-59
2022/11/26 06:33:55;;;;;;;1.00;0.88;;;;;;;6.14;55.19;95855.00;4939410;29;20196;-59
2022/11/26 06:36:22;;;;;;;0.03;0.03;;;;;;;6.09;55.13;95861.81;4938053;28;20228;-61
2022/11/26 06:38:49;;;;;;;0.52;0.52;;;;;;;6.10;55.04;95858.19;4931949;29;20288;-60
2022/11/26 06:41:16;;;;;;;0.43;0.43;;;;;;;5.81;55.91;95869.81;4944041;29;20196;-62
2022/11/26 06:43:43;;;;;;;3.20;1.45;;;;;;;5.89;56.22;95861.03;4938087;28;20287;-61
2022/11/26 06:46:11;;;;;;;0.03;0.03;;;;;;;6.14;55.61;95860.19;4940780;28;20245;-60
2022/11/26 06:48:39;;;;;;;0.00;0.00;;;;;;;6.15;55.86;95863.56;4945546;29;20763;-60
2022/11/26 06:51:11;;;;;;;1.20;1.10;;;;;;;6.37;55.64;95867.53;4932085;29;20196;-61
2022/11/26 06:53:39;;;;;;;2.30;1.13;;;;;;;6.33;55.73;95861.16;4943898;28;20220;-60
2022/11/26 06:56:10;;;;;;;0.17;0.17;;;;;;;6.39;55.30;95862.91;4937507;28;20235;-60
2022/11/26 06:58:45;;;;;;;0.60;0.60;;;;;;;6.60;54.99;95865.25;4951264;28;20200;-61
2022/11/26 07:01:17;;;;;;;0.98;0.98;;;;;;;6.45;55.66;95866.50;4937376;28;20211;-61
2022/11/26 07:03:44;;;;;;;0.10;0.10;;;;;;;6.53;54.83;95867.06;4951217;28;20220;-60
2022/11/26 07:06:20;;;;;;;0.10;0.10;;;;;;;5.90;57.22;95873.84;4937488;28;20614;-59
2022/11/26 07:08:48;;;;;;;0.10;0.10;;;;;;;5.43;58.01;95875.84;4951244;28;20196;-60
2022/11/26 07:11:15;;;;;;;1.30;0.52;;;;;;;5.67;58.13;95877.84;4947836;28;20275;-60
2022/11/26 07:13:42;;;;;;;0.60;0.60;;;;;;;5.96;57.65;95873.03;4935150;29;20200;-60
2022/11/26 07:16:10;;;;;;;0.57;0.57;;;;;;;5.88;57.64;95873.25;4935246;29;20275;-60
2022/11/26 07:18:37;;;;;;;0.30;0.30;;;;;;;5.71;58.21;95853.81;4935309;29;20196;-60
2022/11/26 07:21:06;;;;;;;0.00;0.00;;;;;;;5.96;58.04;95880.03;4948679;29;20287;-60
2022/11/26 07:23:33;;;;;;;0.30;0.30;;;;;;;6.45;56.80;95872.50;4941175;29;20267;-60
2022/11/26 07:26:01;;;;;;;2.83;0.63;;;;;;;6.67;55.88;95876.44;4942150;28;20263;-59
2022/11/26 07:28:29;;;;;;;0.10;0.10;;;;;;;6.62;55.64;95880.66;4953417;29;20310;-61
2022/11/26 07:31:03;;;;;;;0.00;0.00;;;;;;;6.66;55.75;95874.81;4943745;28;20212;-60
2022/11/26 07:33:31;;;;;;;1.30;1.20;;;;;;;6.83;55.00;95873.34;4939402;29;20199;-60
2022/11/26 07:35:59;;;;;;;0.70;0.30;;;;;;;6.94;54.79;95884.91;4953969;28;20635;-60
2022/11/26 07:38:27;;;;;;;2.17;1.55;;;;;;;7.13;54.17;95876.97;4937821;28;20568;-60
2022/11/26 07:41:01;;;;;;;0.00;0.00;;;;;;;7.03;53.84;95887.06;4944149;28;20251;-60
2022/11/26 07:43:28;;;;;;;0.30;0.30;;;;;;;6.52;55.53;95883.69;4940362;29;20201;-61
2022/11/26 07:45:54;;;;;;;1.55;1.23;;;;;;;5.99;57.15;95890.03;4953706;28;20628;-60
2022/11/26 07:48:21;;;;;;;0.03;0.03;;;;;;;6.71;55.76;95882.84;4940719;28;20374;-62
2022/11/26 07:50:48;;;;;;;5.63;2.92;;;;;;;6.68;55.40;95885.84;4948609;28;20205;-60
2022/11/26 07:53:15;;;;;;;0.28;0.28;;;;;;;6.97;55.17;95898.31;4943465;28;20259;-60
2022/11/26 07:55:42;;;;;;;3.10;0.57;;;;;;;6.98;54.77;95899.94;4952166;28;20266;-60
2022/11/26 07:58:08;;;;;;;0.52;0.52;;;;;;;7.07;54.03;95909.09;4941458;28;20271;-61
2022/11/26 08:00:35;;;;;;;0.30;0.30;;;;;;;6.60;55.08;95901.72;4954184;28;20617;-60
2022/11/26 08:03:02;;;;;;;9.55;1.92;;;;;;;6.77;54.55;95897.63;4953735;28;20586;-60
2022/11/26 08:05:29;;;;;;;0.20;0.20;;;;;;;6.50;55.00;95911.75;4953759;28;20200;-59
2022/11/26 08:07:56;;;;;;;1.17;0.68;;;;;;;6.98;54.21;95910.34;4950059;28;20200;-61
2022/11/26 08:10:23;;;;;;;0.15;0.15;;;;;;;6.37;55.31;95890.94;4934161;29;20644;-60
2022/11/26 08:12:50;;;;;;;0.00;0.00;;;;;;;6.86;54.74;95904.19;4936709;29;20201;-60
2022/11/26 08:15:17;;;;;;;0.10;0.10;;;;;;;6.53;55.55;95902.72;4945442;28;20764;-59
2022/11/26 08:17:44;;;;;;;1.33;1.23;;;;;;;6.62;55.25;95909.31;4934483;29;20211;-60
2022/11/26 08:20:11;;;;;;;0.52;0.52;;;;;;;6.81;54.34;95904.00;4953603;28;20287;-60
2022/11/26 08:22:38;;;;;;;0.28;0.28;;;;;;;6.65;55.18;95904.47;4940853;29;20586;-60
2022/11/26 08:25:06;;;;;;;0.00;0.00;;;;;;;7.01;54.25;95909.94;4951346;28;20196;-59
2022/11/26 08:27:33;;;;;;;0.20;0.20;;;;;;;7.14;54.18;95904.66;4942289;29;20208;-60
2022/11/26 08:29:59;;;;;;;0.25;0.25;;;;;;;6.90;54.40;95907.97;4950698;29;20645;-61
2022/11/26 08:32:26;;;;;;;0.80;0.80;;;;;;;7.18;54.00;95911.06;4939971;28;20204;-61
2022/11/26 08:34:53;;;;;;;0.20;0.20;;;;;;;6.82;54.08;95913.44;4940104;29;20195;-60
2022/11/26 08:37:20;;;;;;;0.08;0.08;;;;;;;7.13;54.26;95908.25;4942400;28;20205;-60
2022/11/26 08:39:46;;;;;;;0.25;0.25;;;;;;;7.16;53.77;95918.28;4933991;28;20189;-60
2022/11/26 08:42:13;;;;;;;0.00;0.00;;;;;;;7.01;52.88;95907.31;4943623;28;20258;-61
2022/11/26 08:44:41;;;;;;;1.25;0.85;;;;;;;6.95;53.15;95905.53;4942656;28;20192;-59
2022/11/26 08:47:08;;;;;;;1.75;1.30;;;;;;;7.42;52.53;95906.09;4932019;29;20689;-60
2022/11/26 08:49:35;;;;;;;0.30;0.30;;;;;;;7.63;52.61;95913.53;4932084;29;20663;-61
2022/11/26 08:52:02;;;;;;;0.40;0.40;;;;;;;7.85;52.42;95906.94;4931955;29;20275;-60
2022/11/26 08:54:28;;;;;;;0.30;0.30;;;;;;;7.84;52.51;95923.63;4932487;29;20224;-60
2022/11/26 08:56:56;;;;;;;0.13;0.13;;;;;;;8.27;51.77;95908.81;4932173;29;20243;-60
2022/11/26 08:59:24;;;;;;;0.20;0.20;;;;;;;8.08;52.74;95912.38;4931941;29;21014;-60
2022/11/26 09:01:51;;;;;;;0.00;0.00;;;;;;;8.07;51.79;95913.38;4931581;29;20211;-59
2022/11/26 09:04:17;;;;;;;0.82;0.80;;;;;;;8.33;51.81;95914.97;4931341;29;20228;-61
2022/11/26 09:06:44;;;;;;;0.05;0.05;;;;;;;8.36;51.18;95909.34;4931364;29;20200;-62
2022/11/26 09:09:11;;;;;;;0.15;0.15;;;;;;;8.41;51.24;95907.66;4931378;29;20279;-60
2022/11/26 09:11:56;;;;;;;0.57;0.57;;;;;;;8.47;50.03;95914.63;4932102;29;20211;-62
2022/11/26 09:14:26;;;;;;;0.63;0.63;;;;;;;8.75;49.42;95912.31;4931898;29;20626;-61
2022/11/26 09:16:54;;;;;;;0.00;0.00;;;;;;;8.87;49.80;95894.88;4931243;29;20220;-60
2022/11/26 09:19:23;;;;;;;1.13;1.02;;;;;;;9.03;51.61;95912.56;4931366;29;20197;-61
2022/11/26 09:21:50;;;;;;;0.60;0.45;;;;;;;9.08;49.68;95910.09;4931504;29;20595;-61
2022/11/26 09:24:17;;;;;;;0.63;0.63;;;;;;;9.90;49.63;95904.06;4931444;28;20645;-61
2022/11/26 09:26:44;;;;;;;0.30;0.30;;;;;;;10.61;47.62;95901.22;4931557;29;20649;-62
2022/11/26 09:29:13;;;;;;;2.77;0.83;;;;;;;11.26;45.93;95899.06;4931620;29;20308;-61
2022/11/26 09:31:40;;;;;;;0.10;0.10;;;;;;;11.45;44.95;95886.53;4931480;29;20452;-59
2022/11/26 09:34:27;;;;;;;1.07;1.07;;;;;;;11.23;45.02;95878.56;4931601;29;20531;-62
2022/11/26 09:36:55;;;;;;;1.03;0.97;;;;;;;10.96;45.11;95895.88;4930765;29;21093;-60
2022/11/26 09:39:22;;;;;;;1.60;1.50;;;;;;;11.22;45.38;95888.25;4930690;29;20444;-60
2022/11/26 09:41:56;;;;;;;1.17;1.13;;;;;;;11.21;44.83;95884.03;4930865;29;20443;-61
2022/11/26 09:45:00;;;;;;;0.10;0.10;;;;;;;11.48;44.45;95880.84;4931003;29;20441;-59
2022/11/26 09:47:40;;;;;;;0.50;0.50;;;;;;;11.62;44.04;95882.13;4930176;29;20473;-59
2022/11/26 09:50:09;;;;;;;0.73;0.33;;;;;;;11.70;44.01;95874.69;4931124;29;20511;-60
2022/11/26 09:53:09;;;;;;;0.10;0.10;;;;;;;11.75;45.08;95881.84;4930913;29;20449;-60
2022/11/26 09:55:39;;;;;;;0.50;0.50;;;;;;;11.88;44.20;95884.13;4931052;29;20511;-62
2022/11/26 09:58:19;;;;;;;1.33;1.07;;;;;;;11.69;43.08;95869.66;4930700;29;20543;-58
2022/11/26 10:00:56;;;;;;;1.10;0.83;;;;;;;11.18;43.88;95873.22;4930673;29;20452;-59
2022/11/26 10:03:30;;;;;;;2.13;1.17;;;;;;;10.87;43.75;95871.06;4930132;29;20968;-58
2022/11/26 10:06:35;;;;;;;0.30;0.30;;;;;;;10.88;44.62;95865.56;4931404;29;20464;-66
2022/11/26 10:09:21;;;;;;;2.87;2.57;;;;;;;11.15;44.14;95856.13;4931030;29;20450;-64
2022/11/26 10:12:25;;;;;;;2.63;2.43;;;;;;;11.47;44.36;95848.53;4930758;29;20547;-65
2022/11/26 10:15:19;;;;;;;1.03;0.83;;;;;;;11.20;42.74;95845.72;4930814;29;20932;-60
2022/11/26 10:18:13;;;;;;;0.27;0.27;;;;;;;11.27;42.58;95852.63;4930713;28;20448;-60
2022/11/26 10:20:42;;;;;;;3.00;2.73;;;;;;;11.07;43.00;95843.41;4930544;29;20456;-61
2022/11/26 10:23:12;;;;;;;0.87;0.87;;;;;;;11.44;43.71;95846.38;4930497;29;20444;-62
2022/11/26 10:25:45;;;;;;;0.50;0.50;;;;;;;11.57;43.63;95842.69;4931134;29;20472;-60
2022/11/26 10:28:51;;;;;;;0.33;0.33;;;;;;;12.32;42.63;95835.16;4930649;29;20444;-60
2022/11/26 10:31:21;;;;;;;1.20;0.70;;;;;;;11.75;43.48;95834.59;4947496;28;21015;-59
2022/11/26 10:33:57;;;;;;;2.80;1.50;;;;;;;11.89;42.91;95841.09;4930384;29;20519;-64
2022/11/26 10:36:37;;;;;;;2.47;2.27;;;;;;;11.99;43.25;95814.97;4930367;29;20523;-63
2022/11/26 10:39:06;;;;;;;4.70;2.63;;;;;;;12.16;42.39;95826.25;4930114;29;20448;-59
2022/11/26 10:41:35;;;;;;;3.60;2.27;;;;;;;11.92;43.14;95827.47;4930568;28;21109;-64
2022/11/26 10:44:35;;;;;;;0.73;0.73;;;;;;;12.06;42.85;95826.13;4930633;29;20444;-62
2022/11/26 10:47:26;;;;;;;1.27;1.20;;;;;;;11.78;42.39;95823.59;4932249;29;20476;-61
2022/11/26 10:50:14;;;;;;;0.30;0.30;;;;;;;12.00;42.65;95827.88;4934269;28;20480;-64
2022/11/26 10:53:04;;;;;;;0.20;0.20;;;;;;;11.48;42.91;95833.59;4934557;28;20479;-61
2022/11/26 10:55:38;;;;;;;0.73;0.73;;;;;;;11.77;42.60;95825.41;4933967;29;20495;-63
2022/11/26 10:58:13;;;;;;;4.90;1.00;;;;;;;11.90;42.95;95826.91;4933630;29;20967;-61
2022/11/26 11:00:49;;;;;;;0.30;0.30;;;;;;;12.14;43.11;95828.31;4934060;28;20447;-61
2022/11/26 11:03:21;;;;;;;1.53;0.77;;;;;;;12.14;41.54;95830.94;4933655;29;20926;-61
2022/11/26 11:06:18;;;;;;;1.33;1.27;;;;;;;12.06;42.09;95831.38;4938210;29;21132;-64
2022/11/26 11:08:47;;;;;;;2.47;2.03;;;;;;;12.10;42.50;95832.47;4934099;29;20451;-62
2022/11/26 11:11:28;;;;;;;2.20;0.70;;;;;;;12.26;41.86;95826.41;4933970;29;20535;-61
2022/11/26 11:13:56;;;;;;;0.40;0.40;;;;;;;12.21;42.27;95821.84;4933657;29;21377;-62
2022/11/26 11:16:29;;;;;;;1.53;1.07;;;;;;;12.06;41.39;95839.25;4933587;29;21012;-61
2022/11/26 11:19:04;;;;;;;6.33;1.03;;;;;;;11.92;42.15;95836.16;4933559;28;20851;-60
2022/11/26 11:21:36;;;;;;;1.20;1.10;;;;;;;12.13;41.78;95837.25;4943214;29;20807;-59
2022/11/26 11:24:13;;;;;;;1.03;1.03;;;;;;;12.35;42.35;95829.41;4947301;28;21127;-64
2022/11/26 11:26:43;;;;;;;2.13;1.50;;;;;;;12.38;41.87;95824.44;4944943;28;20482;-63
2022/11/26 11:29:28;;;;;;;1.03;0.70;;;;;;;12.54;42.96;95834.09;4933470;29;20543;-60
2022/11/26 11:31:56;;;;;;;3.40;0.97;;;;;;;12.53;41.54;95816.75;4933615;28;20550;-61
2022/11/26 11:34:31;;;;;;;1.73;1.63;;;;;;;12.73;41.56;95816.19;4933685;29;20468;-78
2022/11/26 11:37:04;;;;;;;3.67;3.03;;;;;;;13.19;40.93;95821.69;4933617;29;20549;-61
2022/11/26 11:39:34;;;;;;;0.97;0.77;;;;;;;13.65;39.45;95819.50;4933257;29;20487;-61
2022/11/26 11:42:05;;;;;;;1.13;1.07;;;;;;;13.62;39.51;95815.50;4933973;28;20481;-61
2022/11/26 11:44:58;;;;;;;1.43;1.33;;;;;;;13.33;39.50;95805.50;4935932;28;20447;-61
2022/11/26 11:47:42;;;;;;;2.73;0.80;;;;;;;14.10;38.66;95806.63;4933355;28;20486;-61
2022/11/26 11:50:24;;;;;;;0.97;0.97;;;;;;;15.19;37.55;95796.78;4934470;28;20448;-60
2022/11/26 11:53:06;;;;;;;0.20;0.20;;;;;;;16.18;35.56;95792.53;4932794;29;20444;-60
2022/11/26 11:55:48;;;;;;;0.80;0.77;;;;;;;17.15;34.22;95791.13;4934401;28;20448;-62